createdAt,value
2019-03-16T00:02:34.070Z,95146.13
2019-03-16T00:05:04.582Z,95111.73
2019-03-16T00:07:35.111Z,95110.12
2019-03-16T00:10:07.372Z,95110.44
2019-03-16T00:12:41.914Z,95110.44
2019-03-16T00:15:13.003Z,95115.16
2019-03-16T00:17:43.593Z,95146.13
2019-03-16T00:20:14.982Z,95140.40
2019-03-16T00:22:45.860Z,95104.27
2019-03-16T00:25:16.233Z,95120.71
2019-03-16T00:27:47.141Z,95068.26
2019-03-16T00:30:25.190Z,95044.97
2019-03-16T00:32:55.616Z,95031.11
2019-03-16T00:35:25.994Z,95021.52
2019-03-16T00:37:56.623Z,95114.36
2019-03-16T00:40:26.959Z,95112.86
2019-03-16T00:42:58.440Z,95095.29
2019-03-16T00:45:32.120Z,95100.34
2019-03-16T00:48:05.592Z,95106.38
2019-03-16T00:50:36.105Z,95106.38
2019-03-16T00:53:06.453Z,95050.69
2019-03-16T00:55:38.970Z,95052.50
2019-03-16T00:58:09.376Z,95096.10
2019-03-16T01:00:40.215Z,95074.12
2019-03-16T01:03:10.560Z,95074.12
2019-03-16T01:05:41.089Z,95067.45
2019-03-16T01:08:11.622Z,95067.45
2019-03-16T01:10:42.243Z,95056.05
2019-03-16T01:13:12.628Z,95058.67
2019-03-16T01:15:44.289Z,95019.03
2019-03-16T01:18:14.739Z,95046.27
2019-03-16T01:20:45.313Z,95071.06
2019-03-16T01:23:17.599Z,95072.99
2019-03-16T01:25:48.224Z,95083.89
2019-03-16T01:28:18.928Z,95061.91
2019-03-16T01:30:49.447Z,95041.38
2019-03-16T01:33:19.888Z,95003.28
2019-03-16T01:35:50.386Z,94943.39
2019-03-16T01:38:20.783Z,94925.63
2019-03-16T01:40:51.158Z,94899.44
2019-03-16T01:43:22.093Z,94885.44
2019-03-16T01:45:52.705Z,94901.55
2019-03-16T01:48:23.125Z,94905.78
2019-03-16T01:50:53.487Z,94876.35
2019-03-16T01:53:24.035Z,94896.02
2019-03-16T01:55:54.781Z,94873.05
2019-03-16T01:58:25.240Z,94906.09
2019-03-16T02:00:55.885Z,94878.28
2019-03-16T02:03:27.191Z,94889.98
2019-03-16T02:05:57.664Z,94897.13
2019-03-16T02:08:36.385Z,94864.78
2019-03-16T02:11:06.790Z,94861.73
2019-03-16T02:13:37.153Z,94869.82
2019-03-16T02:16:11.370Z,94814.50
2019-03-16T02:18:39.642Z,94800.19
2019-03-16T02:21:10.621Z,94868.52
2019-03-16T02:23:41.076Z,94853.89
2019-03-16T02:26:15.793Z,94847.05
2019-03-16T02:28:49.956Z,94834.67
2019-03-16T02:31:20.471Z,94814.50
2019-03-16T02:33:53.378Z,94830.13
2019-03-16T02:36:32.745Z,94856.82
2019-03-16T02:39:03.209Z,94853.89
2019-03-16T02:41:36.948Z,94864.97
2019-03-16T02:44:11.130Z,94828.52
2019-03-16T02:46:39.923Z,94822.67
2019-03-16T02:49:10.427Z,94838.78
2019-03-16T02:51:41.024Z,94826.90
2019-03-16T02:54:11.871Z,94853.89
2019-03-16T02:56:53.409Z,94851.28
2019-03-16T02:59:24.174Z,94873.42
2019-03-16T03:01:55.219Z,94855.20
2019-03-16T03:04:27.978Z,94883.50
2019-03-16T03:07:14.763Z,94810.27
2019-03-16T03:09:51.618Z,94811.57
2019-03-16T03:12:29.045Z,94813.19
2019-03-16T03:14:59.641Z,94845.12
2019-03-16T03:17:35.273Z,94849.66
2019-03-16T03:20:18.975Z,94868.39
2019-03-16T03:22:59.062Z,94884.31
2019-03-16T03:25:34.143Z,94863.16
2019-03-16T03:28:11.228Z,94876.66
2019-03-16T03:30:47.261Z,94873.73
2019-03-16T03:33:58.598Z,94870.01
2019-03-16T03:36:25.848Z,94843.51
2019-03-16T03:39:08.361Z,94821.67
2019-03-16T03:41:51.053Z,94819.25
2019-03-16T03:47:30.751Z,94798.58
2019-03-16T03:50:18.077Z,94822.98
2019-03-16T03:52:55.288Z,94816.80
2019-03-16T03:55:32.606Z,94799.88
2019-03-16T03:58:18.748Z,94866.27
2019-03-16T04:00:57.022Z,94853.89
2019-03-16T04:03:31.907Z,94828.70
2019-03-16T04:06:23.526Z,94791.92
2019-03-16T04:09:00.059Z,94846.43
2019-03-16T04:11:33.844Z,94831.94
2019-03-16T04:14:16.646Z,94825.44
2019-03-16T04:16:49.231Z,94796.46
2019-03-16T04:19:26.476Z,94841.83
2019-03-16T04:22:03.199Z,94819.72
2019-03-16T04:24:40.405Z,94850.47
2019-03-16T04:27:18.291Z,94815.18
2019-03-16T04:29:57.950Z,94848.05
2019-03-16T04:32:38.620Z,94823.30
2019-03-16T04:35:13.290Z,94830.13
2019-03-16T04:37:45.343Z,94795.97
2019-03-16T04:40:24.296Z,94786.89
2019-03-16T04:43:00.048Z,94804.73
2019-03-16T04:45:36.140Z,94851.66
2019-03-16T04:48:08.634Z,94822.33
2019-03-16T04:50:44.173Z,94828.20
2019-03-16T04:53:26.485Z,94805.41
2019-03-16T04:56:00.934Z,94815.48
2019-03-16T04:58:48.570Z,94847.42
2019-03-16T05:01:34.670Z,94822.67
2019-03-16T05:04:15.913Z,94821.86
2019-03-16T05:06:52.868Z,94863.66
2019-03-16T05:09:31.191Z,94837.66
2019-03-16T05:12:09.756Z,94832.44
2019-03-16T05:14:43.083Z,94833.06
2019-03-16T05:17:13.774Z,94798.89
2019-03-16T05:19:46.868Z,94857.81
2019-03-16T05:22:17.958Z,94827.55
2019-03-16T05:24:52.208Z,94805.91
2019-03-16T05:27:33.064Z,94808.34
2019-03-16T05:30:12.273Z,94773.09
2019-03-16T05:32:47.211Z,94771.28
2019-03-16T05:35:21.947Z,94771.28
2019-03-16T05:37:53.017Z,94861.73
2019-03-16T05:40:35.014Z,94858.31
2019-03-16T05:43:10.773Z,94816.48
2019-03-16T05:45:48.796Z,94843.02
2019-03-16T05:48:59.317Z,94869.51
2019-03-16T05:55:53.176Z,94840.58
2019-03-16T05:58:52.982Z,94840.40
2019-03-16T06:02:31.914Z,94879.59
2019-03-16T06:04:32.478Z,94870.01
2019-03-16T06:07:13.731Z,94873.61
2019-03-16T06:09:56.018Z,94899.62
2019-03-16T06:12:36.777Z,94921.58
2019-03-16T06:15:54.751Z,94919.66
2019-03-16T06:21:41.227Z,94937.55
2019-03-16T06:24:56.586Z,94926.31
2019-03-16T06:31:15.492Z,94935.92
2019-03-16T06:34:17.489Z,94994.69
2019-03-16T06:37:02.399Z,94983.11
2019-03-16T06:39:48.734Z,94988.34
2019-03-16T06:42:37.581Z,94982.17
2019-03-16T06:45:14.102Z,95031.17
2019-03-16T06:48:07.676Z,95001.03
2019-03-16T06:51:20.424Z,95028.05
2019-03-16T06:54:13.288Z,95046.95
2019-03-16T06:57:04.308Z,95080.03
2019-03-16T07:03:10.133Z,95129.55
2019-03-16T07:09:28.299Z,95110.17
2019-03-16T07:12:45.605Z,95110.17
2019-03-16T07:15:37.835Z,95132.66
2019-03-16T07:18:58.792Z,95094.53
2019-03-16T07:22:04.995Z,95112.92
2019-03-16T07:28:08.337Z,95186.10
2019-03-16T07:31:00.172Z,95195.27
2019-03-16T07:34:09.051Z,95232.91
2019-03-16T07:37:21.622Z,95323.80
2019-03-16T07:46:28.396Z,95231.60
2019-03-16T07:52:38.938Z,95270.73
2019-03-16T07:55:09.947Z,95297.48
2019-03-16T07:57:58.396Z,95336.78
2019-03-16T08:00:48.966Z,95498.88
2019-03-16T08:03:27.922Z,95498.88
2019-03-16T08:06:01.212Z,95593.80
2019-03-16T08:08:34.613Z,95694.83
2019-03-16T08:11:36.923Z,95685.34
2019-03-16T08:14:12.517Z,95554.27
2019-03-16T08:19:30.765Z,95460.50
2019-03-16T08:22:18.172Z,95472.42
2019-03-16T08:24:55.554Z,95485.98
2019-03-16T08:27:57.138Z,95509.67
2019-03-16T08:31:01.767Z,95475.86
2019-03-16T08:37:18.070Z,95414.50
2019-03-16T08:48:48.720Z,95419.55
2019-03-16T08:51:45.788Z,95367.79
2019-03-16T09:00:51.704Z,95417.74
2019-03-16T09:03:54.544Z,95417.92
2019-03-16T09:06:58.812Z,95477.66
2019-03-16T09:18:36.095Z,95550.83
2019-03-16T09:24:31.486Z,95517.22
2019-03-16T09:27:30.720Z,95473.10
2019-03-16T09:44:05.379Z,95451.38
2019-03-16T09:49:55.254Z,95515.09
2019-03-16T09:55:58.999Z,95645.64
2019-03-16T09:59:05.739Z,95730.64
2019-03-16T10:02:32.674Z,95737.38
2019-03-16T10:05:48.260Z,95716.08
2019-03-16T10:08:38.913Z,95838.77
2019-03-16T10:14:32.167Z,95902.27
2019-03-16T10:17:15.424Z,95837.45
2019-03-16T10:19:52.211Z,95841.39
2019-03-16T10:26:03.805Z,95858.77
2019-03-16T10:40:56.848Z,95866.77
2019-03-16T10:47:31.363Z,95923.23
2019-03-16T10:50:32.631Z,95922.91
2019-03-16T10:53:22.918Z,95939.27
2019-03-16T11:22:06.932Z,96220.69
2019-03-16T11:32:26.188Z,96172.63
2019-03-16T11:54:45.678Z,96106.73
2019-03-16T11:57:26.105Z,96054.95
2019-03-16T12:00:05.538Z,96033.64
2019-03-16T12:02:57.137Z,96045.44
2019-03-16T12:05:44.964Z,96021.36
2019-03-16T12:08:18.503Z,96060.84
2019-03-16T12:10:57.720Z,96032.54
2019-03-16T12:13:37.230Z,96007.28
2019-03-16T12:16:09.253Z,96059.52
2019-03-16T12:18:53.392Z,96030.20
2019-03-16T12:21:38.521Z,96000.25
2019-03-16T12:24:24.020Z,96037.41
2019-03-16T12:26:57.043Z,96041.67
2019-03-16T12:29:38.929Z,96023.99
2019-03-16T12:32:16.906Z,96060.66
2019-03-16T12:34:59.232Z,96043.80
2019-03-16T12:37:38.251Z,96047.73
2019-03-16T12:40:54.867Z,95973.71
2019-03-16T12:43:57.979Z,95888.91
2019-03-16T12:46:42.962Z,95865.00
2019-03-16T12:56:53.965Z,95859.61
2019-03-16T12:59:46.737Z,95869.93
2019-03-16T13:02:07.839Z,95909.51
2019-03-16T13:04:44.208Z,95908.69
2019-03-16T13:07:15.064Z,95901.81
2019-03-16T13:09:52.006Z,95944.87
2019-03-16T13:12:50.411Z,95911.49
2019-03-16T13:15:21.283Z,95899.36
2019-03-16T13:17:56.316Z,95931.11
2019-03-16T13:20:27.672Z,95952.89
2019-03-16T13:22:58.563Z,95995.81
2019-03-16T13:25:44.658Z,95978.96
2019-03-16T13:28:15.493Z,95993.36
2019-03-16T13:30:53.749Z,96036.27
2019-03-16T13:33:41.525Z,96009.09
2019-03-16T13:36:15.247Z,95967.47
2019-03-16T13:38:46.151Z,95937.67
2019-03-16T13:41:16.962Z,95957.64
2019-03-16T13:43:51.078Z,95947.49
2019-03-16T13:46:35.099Z,95886.28
2019-03-16T13:49:05.920Z,95895.78
2019-03-16T13:51:40.451Z,95917.03
2019-03-16T13:54:15.699Z,95871.88
2019-03-16T13:57:14.244Z,95871.88
2019-03-16T13:59:50.489Z,95825.86
2019-03-16T14:02:24.797Z,95761.11
2019-03-16T14:05:00.581Z,95761.92
2019-03-16T14:07:31.344Z,95749.17
2019-03-16T14:10:02.442Z,95810.66
2019-03-16T14:12:47.362Z,95827.36
2019-03-16T14:15:39.484Z,95839.44
2019-03-16T14:18:35.219Z,95874.83
2019-03-16T14:21:07.044Z,95893.16
2019-03-16T14:23:38.798Z,95852.38
2019-03-16T14:26:42.328Z,95884.97
2019-03-16T14:29:04.738Z,95844.69
2019-03-16T14:31:44.165Z,95823.59
2019-03-16T14:34:14.903Z,95819.48
2019-03-16T14:36:52.095Z,95833.55
2019-03-16T14:39:34.770Z,95816.55
2019-03-16T14:42:22.623Z,95801.34
2019-03-16T14:44:57.633Z,95798.58
2019-03-16T14:47:48.929Z,95761.92
2019-03-16T14:50:21.135Z,95746.23
2019-03-16T14:52:53.400Z,95734.76
2019-03-16T14:55:24.777Z,95705.18
2019-03-16T15:01:01.633Z,95674.02
2019-03-16T15:03:54.280Z,95634.39
2019-03-16T15:06:27.147Z,95622.95
2019-03-16T15:09:01.809Z,95601.03
2019-03-16T15:11:33.902Z,95593.53
2019-03-16T15:14:04.862Z,95554.48
2019-03-16T15:16:35.323Z,95533.75
2019-03-16T15:19:05.810Z,95556.61
2019-03-16T15:21:39.225Z,95517.05
2019-03-16T15:24:09.726Z,95504.31
2019-03-16T15:26:54.486Z,95539.94
2019-03-16T15:29:25.201Z,95506.30
2019-03-16T15:31:56.592Z,95506.30
2019-03-16T15:34:33.837Z,95457.80
2019-03-16T15:37:05.411Z,95475.27
2019-03-16T15:39:46.426Z,95467.09
2019-03-16T15:42:16.894Z,95467.09
2019-03-16T15:44:48.869Z,95394.29
2019-03-16T15:47:39.951Z,95394.29
2019-03-16T15:50:10.731Z,95390.05
2019-03-16T15:52:41.548Z,95304.76
2019-03-16T15:55:12.659Z,95338.82
2019-03-16T15:57:45.506Z,95324.78
2019-03-16T16:00:16.021Z,95324.78
2019-03-16T16:02:46.702Z,95343.06
2019-03-16T16:05:17.151Z,95343.06
2019-03-16T16:07:47.510Z,95259.39
2019-03-16T16:10:17.935Z,95259.39
2019-03-16T16:13:06.328Z,95303.77
2019-03-16T16:15:36.818Z,95279.91
2019-03-16T16:18:07.308Z,95295.59
2019-03-16T16:20:37.736Z,95245.37
2019-03-16T16:23:08.246Z,95259.70
2019-03-16T16:25:40.290Z,95241.31
2019-03-16T16:28:11.271Z,95178.70
2019-03-16T16:30:42.089Z,95178.70
2019-03-16T16:33:13.337Z,95169.23
2019-03-16T16:35:44.308Z,95186.84
2019-03-16T16:38:18.300Z,95211.95
2019-03-16T16:40:48.825Z,95190.91
2019-03-16T16:43:19.168Z,95166.61
2019-03-16T16:45:49.586Z,95160.13
2019-03-16T16:48:19.967Z,95144.48
2019-03-16T16:50:50.548Z,95124.11
2019-03-16T16:53:21.896Z,95105.36
2019-03-16T16:55:52.281Z,95124.61
2019-03-16T16:58:22.860Z,95100.81
2019-03-16T17:00:53.280Z,95101.81
2019-03-16T17:03:23.736Z,95075.38
2019-03-16T17:05:54.282Z,95063.66
2019-03-16T17:08:25.166Z,95061.55
2019-03-16T17:10:59.868Z,95038.75
2019-03-16T17:13:30.248Z,95044.79
2019-03-16T17:16:01.812Z,95087.61
2019-03-16T17:18:33.672Z,95070.33
2019-03-16T17:21:04.395Z,95051.95
2019-03-16T17:23:35.309Z,95080.95
2019-03-16T17:27:08.651Z,95078.48
2019-03-16T17:29:39.640Z,95066.91
2019-03-16T17:32:10.412Z,95038.57
2019-03-16T17:34:41.368Z,94998.22
2019-03-16T17:37:12.282Z,94979.17
2019-03-16T17:39:44.776Z,95008.49
2019-03-16T17:42:15.668Z,94954.87
2019-03-16T17:44:46.014Z,94942.17
2019-03-16T17:47:16.773Z,94910.94
2019-03-16T17:49:47.254Z,94870.94
2019-03-16T17:52:18.267Z,94946.41
2019-03-16T17:54:51.790Z,94951.95
2019-03-16T17:57:34.099Z,94924.44
2019-03-16T18:00:09.172Z,94894.02
2019-03-16T18:02:50.531Z,94837.56
2019-03-16T18:05:11.839Z,94915.17
2019-03-16T18:07:42.187Z,94922.64
2019-03-16T18:10:13.416Z,94967.10
2019-03-16T18:12:43.914Z,94948.03
2019-03-16T18:15:15.160Z,94944.79
2019-03-16T18:17:45.725Z,94912.25
2019-03-16T18:20:18.070Z,94892.89
2019-03-16T18:22:48.635Z,94865.09
2019-03-16T18:25:19.078Z,94803.23
2019-03-16T18:27:52.911Z,94770.41
2019-03-16T18:30:23.907Z,94745.55
2019-03-16T18:32:55.563Z,94742.78
2019-03-16T18:35:26.017Z,94695.67
2019-03-16T18:37:56.492Z,94653.42
2019-03-16T18:40:26.961Z,94578.86
2019-03-16T18:42:57.685Z,94546.39
2019-03-16T18:45:28.237Z,94535.84
2019-03-16T18:47:58.727Z,94480.94
2019-03-16T18:50:31.988Z,94412.81
2019-03-16T18:53:03.056Z,94446.56
2019-03-16T18:55:33.988Z,94466.05
2019-03-16T18:58:06.373Z,94476.10
2019-03-16T19:00:37.060Z,94394.30
2019-03-16T19:03:07.706Z,94348.60
2019-03-16T19:05:42.687Z,94288.74
2019-03-16T19:08:13.299Z,94332.34
2019-03-16T19:10:44.890Z,94371.11
2019-03-16T19:13:15.291Z,94377.43
2019-03-16T19:15:45.673Z,94385.56
2019-03-16T19:18:16.035Z,94408.56
2019-03-16T19:20:46.684Z,94421.75
2019-03-16T19:23:17.133Z,94480.33
2019-03-16T19:25:47.682Z,94514.89
2019-03-16T19:28:18.646Z,94545.59
2019-03-16T19:30:51.253Z,94541.67
2019-03-16T19:33:21.767Z,94527.70
2019-03-16T19:35:52.177Z,94578.37
2019-03-16T19:38:22.868Z,94529.51
2019-03-16T19:40:53.399Z,94520.73
2019-03-16T19:43:24.971Z,94520.23
2019-03-16T19:45:55.340Z,94545.40
2019-03-16T19:48:25.725Z,94572.84
2019-03-16T19:50:56.082Z,94549.62
2019-03-16T19:53:26.510Z,94534.53
2019-03-16T19:55:56.895Z,94520.54
2019-03-16T19:58:30.272Z,94507.56
2019-03-16T20:01:00.866Z,94520.42
2019-03-16T20:03:39.249Z,94649.52
2019-03-16T20:06:09.859Z,94719.84
2019-03-16T20:08:40.212Z,94707.67
2019-03-16T20:11:29.107Z,94628.70
2019-03-16T20:13:59.559Z,94621.41
2019-03-16T20:16:29.998Z,94620.41
2019-03-16T20:19:00.685Z,94602.90
2019-03-16T20:21:33.831Z,94588.62
2019-03-16T20:24:04.362Z,94590.42
2019-03-16T20:26:34.821Z,94579.36
2019-03-16T20:29:08.039Z,94585.20
2019-03-16T20:31:47.254Z,94600.09
2019-03-16T20:34:16.383Z,94691.76
2019-03-16T20:37:07.368Z,94640.75
2019-03-16T20:39:37.857Z,94622.83
2019-03-16T20:42:08.762Z,94726.50
2019-03-16T20:44:43.756Z,94756.73
2019-03-16T20:47:16.634Z,94737.56
2019-03-16T20:49:48.929Z,94827.80
2019-03-16T20:52:20.065Z,94801.94
2019-03-16T20:55:53.162Z,94760.34
2019-03-16T20:57:47.112Z,94714.50
2019-03-16T21:00:18.039Z,94709.28
2019-03-16T21:02:48.800Z,94794.97
2019-03-16T21:05:19.800Z,94804.05
2019-03-16T21:07:53.534Z,94769.80
2019-03-16T21:10:24.593Z,94821.45
2019-03-16T21:12:55.131Z,94759.53
2019-03-16T21:15:27.377Z,94731.72
2019-03-16T21:17:58.419Z,94720.66
2019-03-16T21:20:32.445Z,94703.94
2019-03-16T21:23:03.481Z,94706.36
2019-03-16T21:25:34.595Z,94714.81
2019-03-16T21:28:09.203Z,94699.22
2019-03-16T21:30:41.201Z,94712.58
2019-03-16T21:33:11.706Z,94755.80
2019-03-16T21:35:44.248Z,94773.02
2019-03-16T21:38:17.287Z,94762.95
2019-03-16T21:40:47.700Z,94825.69
2019-03-16T21:43:42.809Z,94793.17
2019-03-16T21:46:18.207Z,94845.90
2019-03-16T21:48:58.056Z,94848.95
2019-03-16T21:51:29.787Z,94847.14
2019-03-16T21:54:01.022Z,94813.31
2019-03-16T21:56:35.042Z,94802.62
2019-03-16T21:59:07.348Z,94773.34
2019-03-16T22:01:45.339Z,94847.64
2019-03-16T22:04:17.924Z,94861.98
2019-03-16T22:06:54.961Z,94900.36
2019-03-16T22:09:26.821Z,94899.55
2019-03-16T22:12:00.374Z,94902.48
2019-03-16T22:14:49.013Z,94866.89
2019-03-16T22:17:22.547Z,94830.23
2019-03-16T22:19:56.623Z,94815.92
2019-03-16T22:24:15.743Z,94815.67
2019-03-16T22:25:29.173Z,94814.00
2019-03-16T22:28:00.333Z,94788.94
2019-03-16T22:30:31.647Z,94847.14
2019-03-16T22:33:02.854Z,94865.71
2019-03-16T22:35:48.033Z,94829.11
2019-03-16T22:38:18.670Z,94827.98
2019-03-16T22:40:49.924Z,94887.17
2019-03-16T22:43:20.425Z,94881.33
2019-03-16T22:45:50.815Z,94897.44
2019-03-16T22:48:21.468Z,94881.02
2019-03-16T22:50:51.985Z,94874.17
2019-03-16T22:53:22.654Z,94840.98
2019-03-16T22:55:53.468Z,94817.91
2019-03-16T22:58:24.167Z,94832.53
2019-03-16T23:00:55.081Z,94807.97
2019-03-16T23:03:25.687Z,94760.53
2019-03-16T23:05:56.438Z,94766.99
2019-03-16T23:08:28.626Z,94780.98
2019-03-16T23:10:58.978Z,94806.47
2019-03-16T23:13:29.821Z,94827.62
2019-03-16T23:16:00.427Z,94831.22
2019-03-16T23:18:31.910Z,94799.02
2019-03-16T23:21:04.941Z,94780.48
2019-03-16T23:23:42.804Z,94754.50
2019-03-16T23:26:13.438Z,94747.04
2019-03-16T23:28:44.024Z,94795.59
2019-03-16T23:31:14.486Z,94798.20
2019-03-16T23:33:44.911Z,94859.55
2019-03-16T23:36:17.556Z,94813.81
2019-03-16T23:38:48.272Z,94814.00
2019-03-16T23:41:19.581Z,94859.24
2019-03-16T23:43:54.819Z,94874.67
2019-03-16T23:46:25.172Z,94851.41
2019-03-16T23:48:55.861Z,94836.57
2019-03-16T23:51:27.780Z,94798.20
2019-03-16T23:53:58.137Z,94763.27
2019-03-16T23:56:28.501Z,94724.57
2019-03-16T23:58:58.951Z,94746.05
